createdAt,value
2022-08-21T00:00:29.308Z,3.37
2022-08-21T00:03:17.974Z,3.70
2022-08-21T00:06:06.868Z,3.60
2022-08-21T00:09:06.336Z,3.50
2022-08-21T00:11:55.260Z,3.53
2022-08-21T00:14:45.363Z,3.30
2022-08-21T00:17:35.075Z,3.90
2022-08-21T00:20:23.892Z,3.90
2022-08-21T00:23:12.683Z,3.80
2022-08-21T00:26:01.198Z,3.80
2022-08-21T00:28:49.933Z,3.53
2022-08-21T00:31:39.764Z,3.73
2022-08-21T00:34:28.330Z,4.20
2022-08-21T00:37:16.794Z,3.73
2022-08-21T00:40:06.286Z,3.50
2022-08-21T00:42:54.925Z,3.57
2022-08-21T00:45:43.511Z,3.60
2022-08-21T00:48:33.436Z,4.10
2022-08-21T00:51:26.587Z,3.43
2022-08-21T00:54:18.113Z,3.80
2022-08-21T00:57:12.301Z,3.80
2022-08-21T01:00:02.406Z,4.30
2022-08-21T01:02:50.881Z,4.10
2022-08-21T01:05:40.893Z,3.90
2022-08-21T01:08:30.035Z,4.00
2022-08-21T01:11:18.594Z,4.53
2022-08-21T01:14:07.250Z,4.10
2022-08-21T01:16:55.818Z,4.10
2022-08-21T01:19:44.367Z,3.93
2022-08-21T01:22:59.982Z,4.40
2022-08-21T01:25:48.673Z,4.50
2022-08-21T01:28:39.657Z,4.10
2022-08-21T01:31:28.715Z,4.13
2022-08-21T01:34:17.704Z,3.63
2022-08-21T01:37:06.474Z,4.30
2022-08-21T01:39:56.501Z,4.50
2022-08-21T01:42:45.353Z,4.03
2022-08-21T01:45:33.899Z,4.13
2022-08-21T01:48:22.539Z,4.33
2022-08-21T01:51:11.212Z,4.20
2022-08-21T01:53:59.842Z,3.90
2022-08-21T01:56:51.984Z,4.50
2022-08-21T01:59:40.614Z,4.00
2022-08-21T02:02:29.438Z,4.00
2022-08-21T02:05:18.129Z,4.20
2022-08-21T02:08:07.860Z,3.87
2022-08-21T02:10:56.595Z,4.20
2022-08-21T02:13:46.583Z,4.10
2022-08-21T02:16:35.564Z,4.20
2022-08-21T02:19:25.456Z,4.23
2022-08-21T02:22:14.083Z,3.80
2022-08-21T02:25:02.624Z,4.10
2022-08-21T02:27:54.086Z,4.20
2022-08-21T02:30:46.484Z,4.17
2022-08-21T02:33:35.328Z,3.97
2022-08-21T02:36:23.864Z,4.17
2022-08-21T02:39:12.460Z,4.20
2022-08-21T02:42:01.051Z,4.53
2022-08-21T02:44:50.011Z,4.03
2022-08-21T02:47:40.258Z,4.30
2022-08-21T02:50:30.528Z,4.20
2022-08-21T02:53:19.093Z,4.20
2022-08-21T02:56:09.852Z,4.13
2022-08-21T02:58:58.439Z,4.40
2022-08-21T03:01:47.091Z,4.37
2022-08-21T03:04:37.150Z,4.37
2022-08-21T03:07:25.714Z,4.30
2022-08-21T03:10:14.278Z,4.47
2022-08-21T03:13:03.365Z,4.43
2022-08-21T03:15:52.224Z,4.90
2022-08-21T03:18:41.702Z,4.27
2022-08-21T03:21:31.862Z,4.03
2022-08-21T03:24:21.342Z,3.83
2022-08-21T03:27:12.161Z,4.50
2022-08-21T03:30:01.139Z,4.00
2022-08-21T03:32:49.943Z,3.90
2022-08-21T03:35:38.661Z,4.17
2022-08-21T03:38:29.714Z,3.80
2022-08-21T03:41:18.357Z,4.47
2022-08-21T03:44:07.005Z,4.00
2022-08-21T03:46:55.589Z,4.03
2022-08-21T03:49:44.336Z,4.00
2022-08-21T03:52:32.904Z,4.20
2022-08-21T03:55:22.978Z,4.00
2022-08-21T03:58:16.923Z,4.57
2022-08-21T04:01:07.149Z,4.40
2022-08-21T04:03:55.729Z,4.30
2022-08-21T04:06:44.569Z,4.07
2022-08-21T04:09:33.252Z,4.23
2022-08-21T04:12:23.770Z,4.20
2022-08-21T04:15:13.578Z,4.00
2022-08-21T04:18:02.104Z,4.57
2022-08-21T04:20:52.082Z,3.83
2022-08-21T04:23:40.735Z,4.47
2022-08-21T04:26:29.314Z,3.80
2022-08-21T04:29:20.782Z,3.93
2022-08-21T04:32:09.410Z,3.90
2022-08-21T04:35:02.033Z,4.00
2022-08-21T04:37:50.870Z,4.30
2022-08-21T04:40:39.468Z,4.23
2022-08-21T04:43:29.339Z,4.70
2022-08-21T04:46:20.018Z,4.43
2022-08-21T04:49:08.490Z,4.67
2022-08-21T04:51:57.136Z,4.67
2022-08-21T04:54:47.037Z,4.80
2022-08-21T04:57:48.369Z,4.67
2022-08-21T05:00:38.150Z,3.97
2022-08-21T05:03:28.156Z,4.20
2022-08-21T05:06:16.858Z,4.07
2022-08-21T05:09:05.698Z,3.90
2022-08-21T05:11:54.293Z,4.00
2022-08-21T05:14:43.254Z,4.07
2022-08-21T05:17:32.007Z,4.13
2022-08-21T05:20:22.144Z,4.83
2022-08-21T05:23:11.326Z,4.70
2022-08-21T05:25:59.861Z,4.63
2022-08-21T05:28:48.513Z,4.57
2022-08-21T05:31:37.083Z,4.50
2022-08-21T05:34:26.202Z,4.50
2022-08-21T05:37:16.233Z,4.40
2022-08-21T05:40:21.364Z,4.53
2022-08-21T05:43:11.556Z,4.27
2022-08-21T05:46:00.661Z,4.20
2022-08-21T05:48:49.446Z,4.80
2022-08-21T05:51:38.083Z,3.90
2022-08-21T05:54:28.203Z,3.83
2022-08-21T05:57:16.743Z,4.07
2022-08-21T06:00:07.026Z,3.80
2022-08-21T06:03:01.614Z,3.20
2022-08-21T06:05:50.214Z,3.40
2022-08-21T06:08:38.937Z,3.90
2022-08-21T06:11:29.280Z,3.50
2022-08-21T06:14:18.039Z,3.80
2022-08-21T06:17:06.903Z,3.43
2022-08-21T06:19:55.538Z,3.10
2022-08-21T06:22:44.115Z,3.40
2022-08-21T06:25:32.735Z,3.63
2022-08-21T06:28:22.784Z,3.63
2022-08-21T06:31:16.319Z,3.83
2022-08-21T06:34:04.898Z,3.20
2022-08-21T06:36:53.483Z,3.93
2022-08-21T06:39:45.539Z,3.80
2022-08-21T06:42:34.208Z,4.03
2022-08-21T06:45:24.598Z,4.30
2022-08-21T06:48:18.431Z,4.77
2022-08-21T06:51:07.773Z,4.30
2022-08-21T06:53:56.590Z,4.33
2022-08-21T06:56:48.078Z,4.37
2022-08-21T06:59:36.699Z,4.20
2022-08-21T07:02:26.986Z,4.53
2022-08-21T07:05:18.448Z,4.13
2022-08-21T07:08:07.292Z,4.10
2022-08-21T07:10:56.147Z,4.23
2022-08-21T07:13:44.959Z,3.83
2022-08-21T07:16:33.750Z,4.20
2022-08-21T07:19:24.055Z,4.00
2022-08-21T07:22:12.688Z,3.47
2022-08-21T07:25:01.312Z,4.07
2022-08-21T07:27:49.870Z,4.10
2022-08-21T07:30:38.375Z,4.23
2022-08-21T07:33:27.715Z,3.63
2022-08-21T07:36:18.387Z,4.17
2022-08-21T07:39:06.996Z,4.20
2022-08-21T07:41:55.544Z,3.80
2022-08-21T07:44:44.234Z,4.10
2022-08-21T07:47:42.452Z,3.83
2022-08-21T07:50:31.711Z,3.80
2022-08-21T07:53:21.797Z,4.00
2022-08-21T07:56:12.023Z,3.90
2022-08-21T07:59:00.676Z,3.90
2022-08-21T08:01:49.257Z,4.93
2022-08-21T08:04:38.000Z,3.90
2022-08-21T08:07:39.337Z,4.73
2022-08-21T08:10:29.476Z,4.30
2022-08-21T08:13:18.140Z,4.90
2022-08-21T08:16:07.830Z,4.73
2022-08-21T08:18:56.804Z,4.07
2022-08-21T08:21:45.451Z,4.23
2022-08-21T08:24:34.057Z,4.73
2022-08-21T08:27:23.956Z,4.27
2022-08-21T08:30:14.628Z,3.87
2022-08-21T08:33:03.273Z,4.60
2022-08-21T08:35:53.157Z,5.03
2022-08-21T08:38:41.955Z,4.20
2022-08-21T08:41:33.372Z,5.27
2022-08-21T08:44:23.741Z,5.00
2022-08-21T08:47:13.514Z,4.47
2022-08-21T08:50:05.633Z,4.57
2022-08-21T08:52:58.698Z,4.13
2022-08-21T08:55:47.683Z,4.70
2022-08-21T08:58:40.108Z,5.07
2022-08-21T09:01:30.244Z,5.03
2022-08-21T09:04:22.436Z,4.97
2022-08-21T09:07:17.821Z,4.80
2022-08-21T09:10:19.384Z,4.97
2022-08-21T09:13:14.933Z,4.63
2022-08-21T09:16:07.785Z,4.83
2022-08-21T09:19:05.426Z,5.30
2022-08-21T09:22:01.186Z,4.70
2022-08-21T09:24:58.079Z,4.30
2022-08-21T09:27:46.894Z,5.00
2022-08-21T09:30:35.902Z,4.83
2022-08-21T09:33:24.454Z,4.37
2022-08-21T09:36:14.551Z,4.10
2022-08-21T09:39:03.121Z,4.10
2022-08-21T09:41:57.850Z,3.33
2022-08-21T09:44:47.297Z,3.63
2022-08-21T09:47:36.418Z,3.80
2022-08-21T09:50:27.779Z,3.17
2022-08-21T09:53:22.540Z,2.83
2022-08-21T09:56:38.823Z,3.43
2022-08-21T09:59:36.377Z,3.00
2022-08-21T10:02:29.121Z,3.20
2022-08-21T10:05:21.037Z,2.80
2022-08-21T10:08:20.979Z,3.00
2022-08-21T10:11:11.786Z,3.50
2022-08-21T10:14:06.011Z,3.40
2022-08-21T10:17:01.380Z,3.00
2022-08-21T10:19:55.146Z,3.30
2022-08-21T10:22:47.558Z,2.97
2022-08-21T10:25:56.369Z,3.03
2022-08-21T10:28:57.499Z,3.20
2022-08-21T10:31:56.540Z,3.20
2022-08-21T10:34:50.029Z,3.23
2022-08-21T10:37:49.365Z,3.60
2022-08-21T10:40:42.366Z,3.40
2022-08-21T10:43:36.098Z,3.17
2022-08-21T10:46:38.814Z,3.63
2022-08-21T10:49:35.264Z,3.60
2022-08-21T10:52:48.750Z,3.50
2022-08-21T10:55:43.277Z,3.60
2022-08-21T10:58:33.884Z,3.43
2022-08-21T11:01:28.617Z,3.20
2022-08-21T11:04:22.050Z,4.10
2022-08-21T11:07:17.553Z,3.10
2022-08-21T11:10:23.184Z,3.60
2022-08-21T11:13:20.093Z,3.13
2022-08-21T11:16:18.365Z,3.10
2022-08-21T11:19:11.477Z,3.00
2022-08-21T11:22:04.414Z,2.83
2022-08-21T11:24:56.864Z,2.90
2022-08-21T11:27:48.916Z,2.50
2022-08-21T11:30:46.636Z,3.00
2022-08-21T11:33:48.090Z,2.53
2022-08-21T11:36:45.222Z,2.93
2022-08-21T11:39:40.457Z,2.63
2022-08-21T11:42:34.745Z,2.50
2022-08-21T11:45:29.216Z,2.50
2022-08-21T11:48:34.989Z,2.70
2022-08-21T11:51:26.080Z,2.73
2022-08-21T11:54:22.763Z,2.50
2022-08-21T11:57:17.893Z,2.80
2022-08-21T12:00:10.058Z,2.87
2022-08-21T12:03:10.558Z,2.23
2022-08-21T12:06:02.132Z,2.60
2022-08-21T12:09:00.695Z,2.70
2022-08-21T12:11:50.117Z,2.37
2022-08-21T12:14:44.664Z,2.40
2022-08-21T12:17:38.753Z,2.60
2022-08-21T12:20:50.682Z,2.80
2022-08-21T12:23:50.542Z,2.30
2022-08-21T12:26:53.303Z,2.83
2022-08-21T12:29:47.468Z,2.70
2022-08-21T12:32:46.333Z,2.40
2022-08-21T12:35:39.779Z,2.90
2022-08-21T12:38:30.518Z,2.87
2022-08-21T12:41:24.137Z,3.37
2022-08-21T12:44:16.196Z,2.50
2022-08-21T12:47:07.175Z,2.20
2022-08-21T12:50:00.316Z,2.83
2022-08-21T12:52:56.492Z,2.90
2022-08-21T12:55:45.196Z,2.80
2022-08-21T12:58:35.125Z,3.10
2022-08-21T13:01:26.275Z,2.80
2022-08-21T13:04:19.084Z,3.20
2022-08-21T13:07:11.907Z,3.10
2022-08-21T13:10:03.480Z,2.97
2022-08-21T13:12:52.254Z,3.00
2022-08-21T13:15:47.593Z,2.83
2022-08-21T13:18:38.145Z,2.93
2022-08-21T13:21:31.749Z,3.30
2022-08-21T13:24:41.822Z,3.13
2022-08-21T13:27:32.546Z,2.87
2022-08-21T13:30:23.169Z,3.27
2022-08-21T13:33:13.640Z,3.17
2022-08-21T13:36:06.568Z,3.00
2022-08-21T13:38:55.853Z,2.50
2022-08-21T13:41:46.211Z,3.13
2022-08-21T13:44:37.289Z,3.17
2022-08-21T13:47:25.853Z,3.00
2022-08-21T13:50:16.669Z,2.73
2022-08-21T13:53:07.865Z,3.10
2022-08-21T13:56:00.558Z,2.77
2022-08-21T13:58:49.751Z,3.13
2022-08-21T14:01:41.127Z,3.13
2022-08-21T14:04:35.864Z,3.13
2022-08-21T14:07:28.285Z,2.97
2022-08-21T14:10:19.861Z,2.87
2022-08-21T14:13:09.095Z,2.70
2022-08-21T14:15:59.261Z,2.80
2022-08-21T14:18:51.370Z,2.73
2022-08-21T14:21:41.870Z,2.90
2022-08-21T14:24:32.375Z,3.03
2022-08-21T14:27:25.412Z,2.97
2022-08-21T14:30:19.368Z,2.53
2022-08-21T14:33:11.507Z,2.93
2022-08-21T14:36:00.281Z,2.57
2022-08-21T14:38:48.971Z,2.87
2022-08-21T14:41:39.345Z,2.80
2022-08-21T14:44:27.970Z,2.63
2022-08-21T14:47:16.529Z,3.23
2022-08-21T14:50:05.449Z,3.00
2022-08-21T14:52:54.493Z,2.83
2022-08-21T14:58:48.019Z,2.73
2022-08-21T15:01:46.083Z,2.80
2022-08-21T15:04:34.920Z,2.90
2022-08-21T15:07:23.514Z,3.23
2022-08-21T15:10:12.285Z,2.80
2022-08-21T15:13:01.182Z,3.00
2022-08-21T15:15:53.630Z,3.00
2022-08-21T15:18:42.843Z,2.70
2022-08-21T15:21:31.412Z,2.87
2022-08-21T15:24:20.018Z,2.70
2022-08-21T15:27:09.413Z,3.00
2022-08-21T15:29:58.295Z,2.77
2022-08-21T15:32:48.595Z,2.10
2022-08-21T15:35:37.476Z,2.50
2022-08-21T15:38:30.273Z,2.80
2022-08-21T15:41:19.096Z,2.80
2022-08-21T15:44:11.441Z,2.90
2022-08-21T15:47:00.705Z,2.67
2022-08-21T15:49:51.044Z,2.33
2022-08-21T15:52:40.191Z,2.50
2022-08-21T15:55:28.940Z,2.73
2022-08-21T15:58:18.032Z,2.73
2022-08-21T16:01:06.845Z,3.10
2022-08-21T16:03:55.440Z,2.50
2022-08-21T16:06:54.072Z,2.37
2022-08-21T16:09:45.358Z,2.93
2022-08-21T16:12:35.859Z,2.77
2022-08-21T16:15:24.522Z,2.30
2022-08-21T16:18:12.993Z,3.13
2022-08-21T16:21:01.515Z,2.70
2022-08-21T16:23:51.515Z,2.80
2022-08-21T16:26:40.012Z,3.00
2022-08-21T16:29:28.876Z,2.50
2022-08-21T16:32:18.368Z,2.30
2022-08-21T16:35:07.331Z,2.43
2022-08-21T16:37:55.993Z,2.70
2022-08-21T16:40:46.123Z,2.60
2022-08-21T16:43:34.651Z,2.60
2022-08-21T16:46:23.136Z,2.40
2022-08-21T16:49:11.727Z,2.63
2022-08-21T16:52:00.462Z,2.50
2022-08-21T16:54:48.902Z,2.50
2022-08-21T16:57:38.821Z,2.27
2022-08-21T17:00:27.297Z,2.50
2022-08-21T17:03:18.258Z,2.73
2022-08-21T17:06:07.302Z,2.47
2022-08-21T17:08:55.769Z,2.20
2022-08-21T17:11:47.614Z,2.70
2022-08-21T17:14:37.862Z,2.50
2022-08-21T17:17:26.396Z,3.00
2022-08-21T17:20:15.702Z,3.13
2022-08-21T17:23:04.418Z,3.20
2022-08-21T17:25:54.530Z,2.73
2022-08-21T17:28:43.155Z,2.80
2022-08-21T17:31:33.503Z,2.40
2022-08-21T17:34:21.988Z,2.70
2022-08-21T17:37:10.402Z,2.30
2022-08-21T17:39:58.872Z,2.40
2022-08-21T17:42:48.270Z,2.40
2022-08-21T17:45:37.165Z,3.00
2022-08-21T17:48:30.295Z,2.50
2022-08-21T17:51:19.081Z,2.27
2022-08-21T17:54:07.757Z,2.37
2022-08-21T17:56:56.182Z,2.70
2022-08-21T17:59:45.141Z,2.60
2022-08-21T18:02:34.003Z,2.43
2022-08-21T18:05:25.221Z,2.60
2022-08-21T18:08:14.558Z,2.73
2022-08-21T18:11:03.422Z,2.67
2022-08-21T18:13:52.032Z,2.43
2022-08-21T18:16:40.508Z,2.47
2022-08-21T18:19:29.085Z,2.30
2022-08-21T18:22:19.292Z,2.40
2022-08-21T18:25:08.928Z,2.23
2022-08-21T18:27:57.619Z,2.30
2022-08-21T18:30:46.723Z,2.33
2022-08-21T18:33:35.864Z,2.50
2022-08-21T18:36:24.721Z,2.53
2022-08-21T18:39:35.509Z,2.63
2022-08-21T18:42:28.383Z,2.60
2022-08-21T18:45:19.646Z,2.70
2022-08-21T18:48:09.393Z,2.57
2022-08-21T18:50:57.889Z,2.37
2022-08-21T18:53:48.453Z,2.27
2022-08-21T18:56:43.905Z,2.53
2022-08-21T18:59:32.679Z,2.70
2022-08-21T19:02:21.772Z,2.43
2022-08-21T19:05:13.533Z,2.80
2022-08-21T19:08:02.079Z,2.23
2022-08-21T19:10:52.073Z,2.70
2022-08-21T19:13:42.135Z,2.30
2022-08-21T19:16:30.566Z,2.23
2022-08-21T19:19:19.571Z,2.13
2022-08-21T19:22:10.834Z,2.20
2022-08-21T19:24:59.906Z,2.50
2022-08-21T19:27:48.734Z,2.10
2022-08-21T19:30:40.630Z,2.50
2022-08-21T19:33:33.639Z,2.40
2022-08-21T19:36:22.341Z,2.47
2022-08-21T19:39:11.062Z,2.53
2022-08-21T19:42:00.432Z,2.57
2022-08-21T19:44:54.195Z,2.17
2022-08-21T19:47:48.749Z,2.60
2022-08-21T19:50:38.043Z,2.40
2022-08-21T19:53:26.767Z,2.47
2022-08-21T19:56:20.474Z,2.50
2022-08-21T19:59:10.773Z,2.30
2022-08-21T20:01:59.504Z,2.73
2022-08-21T20:04:53.478Z,2.57
2022-08-21T20:07:43.404Z,2.50
2022-08-21T20:10:32.338Z,2.60
2022-08-21T20:13:22.377Z,2.63
2022-08-21T20:16:13.419Z,2.70
2022-08-21T20:19:03.674Z,2.70
2022-08-21T20:21:55.104Z,2.90
2022-08-21T20:24:46.595Z,2.80
2022-08-21T20:27:36.386Z,2.40
2022-08-21T20:30:29.312Z,2.50
2022-08-21T20:33:18.256Z,2.53
2022-08-21T20:36:07.361Z,2.57
2022-08-21T20:38:58.956Z,2.40
2022-08-21T20:41:47.779Z,2.47
2022-08-21T20:44:36.473Z,2.50
2022-08-21T20:47:25.420Z,2.47
2022-08-21T20:50:20.699Z,2.70
2022-08-21T20:53:13.446Z,2.43
2022-08-21T20:56:04.325Z,2.70
2022-08-21T20:58:56.197Z,2.67
2022-08-21T21:01:44.678Z,2.50
2022-08-21T21:04:37.804Z,2.57
2022-08-21T21:07:30.842Z,2.40
2022-08-21T21:10:26.657Z,2.53
2022-08-21T21:13:22.598Z,2.90
2022-08-21T21:16:13.788Z,2.77
2022-08-21T21:19:05.133Z,2.53
2022-08-21T21:21:58.234Z,2.70
2022-08-21T21:24:54.269Z,2.33
2022-08-21T21:27:48.958Z,2.63
2022-08-21T21:30:46.418Z,2.40
2022-08-21T21:33:35.326Z,2.50
2022-08-21T21:36:30.593Z,2.60
2022-08-21T21:39:25.044Z,2.70
2022-08-21T21:45:32.044Z,2.70
2022-08-21T21:48:27.661Z,2.30
2022-08-21T21:51:20.814Z,2.27
2022-08-21T21:54:18.760Z,2.23
2022-08-21T21:57:14.995Z,2.40
2022-08-21T22:00:10.134Z,2.40
2022-08-21T22:03:09.858Z,2.80
2022-08-21T22:06:07.947Z,2.60
2022-08-21T22:09:01.064Z,2.33
2022-08-21T22:12:02.398Z,2.50
2022-08-21T22:14:51.570Z,2.80
2022-08-21T22:17:45.576Z,2.40
2022-08-21T22:20:38.332Z,2.73
2022-08-21T22:23:34.297Z,2.63
2022-08-21T22:26:28.687Z,2.60
2022-08-21T22:29:20.369Z,2.37
2022-08-21T22:32:11.904Z,2.47
2022-08-21T22:41:33.924Z,2.00
2022-08-21T22:44:24.525Z,2.60
2022-08-21T22:47:21.053Z,2.30
2022-08-21T22:50:20.850Z,2.40
2022-08-21T22:53:09.972Z,3.10
2022-08-21T22:56:00.345Z,3.00
2022-08-21T22:58:57.323Z,3.10
2022-08-21T23:01:45.925Z,2.83
2022-08-21T23:04:48.293Z,2.87
2022-08-21T23:07:43.089Z,2.80
2022-08-21T23:10:35.107Z,2.60
2022-08-21T23:13:23.638Z,2.60
2022-08-21T23:16:31.597Z,2.60
2022-08-21T23:19:39.195Z,2.27
2022-08-21T23:22:37.484Z,2.63
2022-08-21T23:25:57.851Z,2.23
2022-08-21T23:28:59.033Z,2.53
2022-08-21T23:31:54.838Z,2.50
2022-08-21T23:34:45.823Z,2.40
2022-08-21T23:37:51.596Z,2.37
2022-08-21T23:40:51.381Z,2.80
2022-08-21T23:43:47.434Z,2.63
2022-08-21T23:46:54.030Z,2.70
2022-08-21T23:49:53.785Z,2.70
2022-08-21T23:52:52.728Z,2.60
2022-08-21T23:55:59.879Z,2.50
2022-08-21T23:58:54.229Z,3.10
